createdAt,value
2019-03-31T00:01:07.679Z,0.00
2019-03-31T00:01:55.458Z,0.00
2019-03-31T00:02:54.473Z,0.00
2019-03-31T00:03:54.436Z,0.00
2019-03-31T00:04:54.425Z,0.00
2019-03-31T00:05:54.415Z,0.00
2019-03-31T00:06:54.403Z,0.00
2019-03-31T00:07:54.415Z,0.00
2019-03-31T00:08:54.394Z,0.00
2019-03-31T00:09:54.405Z,0.00
2019-03-31T00:10:54.358Z,0.00
2019-03-31T00:11:54.347Z,0.00
2019-03-31T00:12:54.336Z,0.00
2019-03-31T00:13:54.325Z,0.00
2019-03-31T00:14:54.346Z,0.00
2019-03-31T00:15:54.308Z,0.00
2019-03-31T00:16:54.298Z,0.00
2019-03-31T00:17:54.284Z,0.00
2019-03-31T00:18:54.270Z,0.00
2019-03-31T00:19:54.287Z,0.00
2019-03-31T00:20:54.246Z,0.00
2019-03-31T00:21:54.274Z,0.00
2019-03-31T00:22:54.248Z,0.00
2019-03-31T00:23:54.213Z,0.00
2019-03-31T00:24:54.205Z,0.00
2019-03-31T00:25:54.195Z,0.00
2019-03-31T00:26:54.178Z,0.00
2019-03-31T00:27:54.274Z,0.00
2019-03-31T00:28:54.159Z,0.00
2019-03-31T00:29:54.147Z,0.00
2019-03-31T00:30:54.134Z,0.00
2019-03-31T00:31:54.124Z,0.00
2019-03-31T00:32:54.138Z,0.00
2019-03-31T00:33:54.100Z,0.00
2019-03-31T00:34:54.119Z,0.00
2019-03-31T00:35:54.082Z,0.00
2019-03-31T00:36:54.103Z,0.00
2019-03-31T00:37:54.059Z,0.00
2019-03-31T00:38:54.046Z,0.00
2019-03-31T00:39:54.037Z,0.00
2019-03-31T00:40:54.021Z,0.00
2019-03-31T00:41:54.037Z,0.00
2019-03-31T00:42:54.010Z,0.00
2019-03-31T00:43:53.990Z,0.00
2019-03-31T00:44:53.980Z,0.00
2019-03-31T00:45:53.965Z,0.00
2019-03-31T00:46:53.983Z,0.00
2019-03-31T00:47:53.964Z,0.00
2019-03-31T00:48:53.931Z,0.00
2019-03-31T00:49:53.930Z,0.00
2019-03-31T00:50:53.913Z,0.00
2019-03-31T00:51:53.899Z,0.00
2019-03-31T00:52:53.921Z,0.00
2019-03-31T00:53:53.907Z,0.00
2019-03-31T00:54:53.870Z,0.00
2019-03-31T00:55:53.858Z,0.00
2019-03-31T00:56:53.844Z,0.00
2019-03-31T00:57:53.922Z,0.00
2019-03-31T00:58:53.826Z,0.00
2019-03-31T00:59:53.830Z,0.00
2019-03-31T01:00:53.799Z,0.00
2019-03-31T01:01:53.797Z,0.00
2019-03-31T01:02:53.775Z,0.00
2019-03-31T01:03:53.762Z,0.00
2019-03-31T01:04:53.811Z,0.00
2019-03-31T01:05:53.767Z,0.00
2019-03-31T01:06:53.757Z,0.00
2019-03-31T01:07:53.720Z,0.00
2019-03-31T01:08:53.707Z,0.00
2019-03-31T01:09:53.699Z,0.00
2019-03-31T01:10:53.714Z,0.00
2019-03-31T01:11:53.674Z,0.00
2019-03-31T01:12:53.686Z,0.00
2019-03-31T01:13:53.681Z,0.00
2019-03-31T01:14:53.641Z,0.00
2019-03-31T01:15:53.653Z,0.00
2019-03-31T01:16:53.620Z,0.00
2019-03-31T01:17:53.608Z,0.00
2019-03-31T01:18:53.598Z,0.00
2019-03-31T01:19:53.598Z,0.00
2019-03-31T01:20:53.607Z,0.00
2019-03-31T01:21:53.561Z,0.00
2019-03-31T01:22:53.564Z,0.00
2019-03-31T01:23:53.545Z,0.00
2019-03-31T01:24:53.549Z,0.00
2019-03-31T01:25:53.555Z,0.00
2019-03-31T01:26:53.507Z,0.00
2019-03-31T01:27:53.494Z,0.00
2019-03-31T01:28:53.524Z,0.00
2019-03-31T01:29:53.475Z,0.00
2019-03-31T01:30:53.480Z,0.00
2019-03-31T01:31:53.456Z,0.00
2019-03-31T01:32:53.463Z,0.00
2019-03-31T01:33:53.427Z,0.00
2019-03-31T01:34:53.454Z,0.00
2019-03-31T01:35:53.405Z,0.00
2019-03-31T01:36:53.395Z,0.00
2019-03-31T01:37:53.414Z,0.00
2019-03-31T01:38:53.397Z,0.00
2019-03-31T01:39:53.363Z,0.00
2019-03-31T01:40:53.384Z,0.00
2019-03-31T01:41:53.342Z,0.00
2019-03-31T01:42:53.352Z,0.00
2019-03-31T01:43:53.771Z,0.00
2019-03-31T01:44:53.309Z,0.00
2019-03-31T01:45:53.317Z,0.00
2019-03-31T01:46:53.285Z,0.00
2019-03-31T01:47:53.271Z,0.00
2019-03-31T01:48:53.261Z,0.00
2019-03-31T01:49:53.256Z,0.00
2019-03-31T01:50:53.270Z,0.00
2019-03-31T01:51:53.232Z,0.00
2019-03-31T01:52:53.222Z,0.00
2019-03-31T01:53:53.203Z,0.00
2019-03-31T01:54:53.210Z,0.00
2019-03-31T01:55:53.274Z,0.00
2019-03-31T01:56:53.174Z,0.00
2019-03-31T01:57:53.166Z,0.00
2019-03-31T01:58:53.165Z,0.00
2019-03-31T01:59:53.190Z,0.00
2019-03-31T02:00:53.125Z,0.00
2019-03-31T02:02:04.014Z,0.00
2019-03-31T02:02:54.102Z,0.00
2019-03-31T02:03:53.786Z,0.00
2019-03-31T02:04:53.129Z,0.00
2019-03-31T02:05:53.093Z,0.00
2019-03-31T02:06:53.059Z,0.00
2019-03-31T02:07:53.264Z,0.00
2019-03-31T02:08:53.034Z,0.00
2019-03-31T02:09:53.327Z,0.00
2019-03-31T02:10:53.014Z,0.00
2019-03-31T02:11:53.050Z,0.00
2019-03-31T02:12:53.000Z,0.00
2019-03-31T02:13:53.016Z,0.00
2019-03-31T02:14:52.969Z,0.00
2019-03-31T02:15:52.960Z,0.00
2019-03-31T02:16:52.946Z,0.00
2019-03-31T02:17:52.974Z,0.00
2019-03-31T02:18:52.951Z,0.00
2019-03-31T02:19:52.913Z,0.00
2019-03-31T02:20:52.902Z,0.00
2019-03-31T02:21:52.895Z,0.00
2019-03-31T02:22:52.887Z,0.00
2019-03-31T02:23:52.893Z,0.00
2019-03-31T02:24:52.855Z,0.00
2019-03-31T02:25:52.858Z,0.00
2019-03-31T02:26:52.835Z,0.00
2019-03-31T02:27:52.837Z,0.00
2019-03-31T02:28:52.809Z,0.00
2019-03-31T02:29:52.817Z,0.00
2019-03-31T02:30:52.814Z,0.00
2019-03-31T02:31:52.805Z,0.00
2019-03-31T02:32:52.771Z,0.00
2019-03-31T02:33:52.757Z,0.00
2019-03-31T02:34:52.746Z,0.00
2019-03-31T02:35:52.759Z,0.00
2019-03-31T02:36:52.730Z,0.00
2019-03-31T02:37:52.720Z,0.00
2019-03-31T02:38:52.709Z,0.00
2019-03-31T02:39:52.718Z,0.00
2019-03-31T02:40:52.678Z,0.00
2019-03-31T02:41:52.666Z,0.00
2019-03-31T02:42:52.715Z,0.00
2019-03-31T02:43:52.646Z,0.00
2019-03-31T02:44:52.655Z,0.00
2019-03-31T02:45:52.631Z,0.00
2019-03-31T02:46:52.610Z,0.00
2019-03-31T02:47:52.624Z,0.00
2019-03-31T02:48:52.589Z,0.00
2019-03-31T02:49:52.579Z,0.00
2019-03-31T02:50:52.581Z,0.00
2019-03-31T02:51:52.580Z,0.00
2019-03-31T02:52:52.544Z,0.00
2019-03-31T02:53:52.565Z,0.00
2019-03-31T02:54:52.549Z,0.00
2019-03-31T02:55:52.510Z,0.00
2019-03-31T02:56:52.504Z,0.00
2019-03-31T02:57:52.514Z,0.00
2019-03-31T02:58:52.482Z,0.00
2019-03-31T02:59:52.484Z,0.00
2019-03-31T03:00:52.457Z,0.00
2019-03-31T03:01:52.468Z,0.00
2019-03-31T03:02:52.430Z,0.00
2019-03-31T03:03:52.481Z,0.00
2019-03-31T03:04:52.543Z,0.00
2019-03-31T03:05:52.399Z,0.00
2019-03-31T03:06:52.401Z,0.00
2019-03-31T03:07:52.382Z,0.00
2019-03-31T03:08:52.390Z,0.00
2019-03-31T03:09:52.354Z,0.00
2019-03-31T03:10:52.418Z,0.00
2019-03-31T03:11:52.335Z,0.00
2019-03-31T03:12:52.347Z,0.00
2019-03-31T03:13:52.310Z,0.00
2019-03-31T03:14:52.313Z,0.00
2019-03-31T03:15:52.316Z,0.00
2019-03-31T03:16:52.279Z,0.00
2019-03-31T03:17:52.264Z,0.00
2019-03-31T03:18:52.252Z,0.00
2019-03-31T03:19:52.263Z,0.00
2019-03-31T03:20:52.238Z,0.00
2019-03-31T03:21:52.227Z,0.00
2019-03-31T03:22:52.207Z,0.00
2019-03-31T03:23:52.198Z,0.00
2019-03-31T03:24:52.215Z,0.00
2019-03-31T03:25:56.242Z,0.00
2019-03-31T03:26:52.172Z,0.00
2019-03-31T03:27:52.155Z,0.00
2019-03-31T03:28:52.144Z,0.00
2019-03-31T03:29:52.159Z,0.00
2019-03-31T03:30:52.206Z,0.00
2019-03-31T03:31:52.145Z,0.00
2019-03-31T03:33:13.527Z,0.00
2019-03-31T03:33:53.107Z,0.00
2019-03-31T03:34:52.095Z,0.00
2019-03-31T03:35:52.092Z,0.00
2019-03-31T03:36:52.082Z,0.00
2019-03-31T03:37:52.046Z,0.00
2019-03-31T03:38:52.028Z,0.00
2019-03-31T03:39:52.060Z,0.00
2019-03-31T03:40:52.013Z,0.00
2019-03-31T03:41:51.999Z,0.00
2019-03-31T03:42:51.985Z,0.00
2019-03-31T03:43:59.565Z,0.00
2019-03-31T03:44:53.003Z,0.00
2019-03-31T03:45:51.948Z,0.00
2019-03-31T03:46:51.962Z,0.00
2019-03-31T03:47:51.932Z,0.00
2019-03-31T03:48:51.967Z,0.00
2019-03-31T03:49:51.938Z,0.00
2019-03-31T03:50:51.900Z,0.00
2019-03-31T03:51:51.893Z,0.00
2019-03-31T03:52:51.872Z,0.00
2019-03-31T03:53:51.887Z,0.00
2019-03-31T03:54:51.882Z,0.00
2019-03-31T03:55:51.839Z,0.00
2019-03-31T03:56:51.827Z,0.00
2019-03-31T03:57:51.821Z,0.00
2019-03-31T03:58:51.805Z,0.00
2019-03-31T03:59:51.853Z,0.00
2019-03-31T04:00:51.808Z,0.00
2019-03-31T04:01:51.774Z,0.00
2019-03-31T04:02:51.765Z,0.00
2019-03-31T04:03:51.751Z,0.00
2019-03-31T04:04:51.783Z,0.00
2019-03-31T04:05:51.729Z,0.00
2019-03-31T04:06:51.736Z,0.00
2019-03-31T04:07:51.706Z,0.00
2019-03-31T04:08:51.711Z,0.00
2019-03-31T04:09:51.718Z,0.00
2019-03-31T04:10:51.672Z,0.00
2019-03-31T04:11:51.676Z,0.00
2019-03-31T04:12:51.652Z,0.00
2019-03-31T04:13:51.638Z,0.00
2019-03-31T04:14:51.658Z,0.00
2019-03-31T04:15:51.613Z,0.00
2019-03-31T04:16:51.603Z,0.00
2019-03-31T04:17:51.630Z,0.00
2019-03-31T04:18:51.598Z,0.00
2019-03-31T04:19:51.568Z,0.00
2019-03-31T04:20:51.559Z,0.00
2019-03-31T04:21:51.552Z,0.00
2019-03-31T04:22:51.559Z,0.00
2019-03-31T04:23:51.559Z,0.00
2019-03-31T04:24:51.521Z,0.00
2019-03-31T04:25:51.536Z,0.00
2019-03-31T04:26:51.497Z,0.00
2019-03-31T04:27:51.501Z,0.00
2019-03-31T04:28:51.470Z,0.00
2019-03-31T04:29:51.489Z,0.00
2019-03-31T04:30:51.447Z,0.00
2019-03-31T04:31:51.442Z,0.00
2019-03-31T04:32:51.430Z,0.00
2019-03-31T04:33:52.961Z,0.00
2019-03-31T04:34:51.428Z,0.00
2019-03-31T04:35:51.429Z,0.00
2019-03-31T04:36:51.392Z,0.00
2019-03-31T04:37:51.370Z,0.00
2019-03-31T04:38:51.366Z,0.00
2019-03-31T04:39:51.370Z,0.00
2019-03-31T04:40:51.333Z,0.00
2019-03-31T04:41:51.330Z,0.00
2019-03-31T04:42:51.316Z,0.00
2019-03-31T04:43:51.302Z,0.00
2019-03-31T04:44:51.313Z,0.00
2019-03-31T04:45:51.278Z,0.00
2019-03-31T04:46:51.286Z,0.00
2019-03-31T04:47:51.287Z,0.00
2019-03-31T04:48:51.248Z,0.00
2019-03-31T04:49:51.239Z,0.00
2019-03-31T04:50:52.214Z,0.00
2019-03-31T04:51:51.217Z,0.00
2019-03-31T04:52:51.223Z,0.00
2019-03-31T04:53:51.186Z,0.00
2019-03-31T04:54:51.178Z,0.00
2019-03-31T04:55:51.164Z,0.00
2019-03-31T04:56:51.176Z,0.00
2019-03-31T04:57:51.145Z,0.00
2019-03-31T04:58:51.159Z,0.00
2019-03-31T04:59:51.182Z,0.00
2019-03-31T05:00:51.119Z,0.00
2019-03-31T05:01:51.105Z,0.00
2019-03-31T05:02:51.089Z,0.00
2019-03-31T05:04:03.859Z,0.00
2019-03-31T05:04:52.068Z,5.62
2019-03-31T05:05:51.051Z,5.62
2019-03-31T05:06:51.077Z,5.62
2019-03-31T05:07:51.062Z,5.62
2019-03-31T05:08:51.025Z,5.62
2019-03-31T05:09:51.007Z,5.62
2019-03-31T05:10:51.003Z,5.62
2019-03-31T05:11:51.022Z,5.62
2019-03-31T05:12:50.991Z,5.62
2019-03-31T05:13:50.964Z,5.62
2019-03-31T05:14:50.954Z,5.62
2019-03-31T05:15:50.949Z,5.62
2019-03-31T05:16:50.963Z,5.62
2019-03-31T05:17:50.943Z,5.62
2019-03-31T05:18:50.908Z,5.62
2019-03-31T05:19:50.897Z,5.62
2019-03-31T05:20:50.910Z,11.25
2019-03-31T05:21:50.881Z,11.25
2019-03-31T05:22:52.820Z,11.25
2019-03-31T05:23:50.911Z,11.25
2019-03-31T05:24:50.849Z,11.25
2019-03-31T05:25:50.833Z,11.25
2019-03-31T05:26:50.847Z,11.25
2019-03-31T05:27:50.810Z,11.25
2019-03-31T05:28:50.803Z,11.25
2019-03-31T05:29:50.790Z,11.25
2019-03-31T05:30:50.805Z,11.25
2019-03-31T05:31:50.769Z,16.88
2019-03-31T05:32:50.750Z,16.88
2019-03-31T05:33:50.763Z,16.88
2019-03-31T05:34:50.728Z,16.88
2019-03-31T05:35:50.724Z,16.88
2019-03-31T05:36:50.743Z,22.50
2019-03-31T05:37:51.590Z,22.50
2019-03-31T05:38:50.686Z,22.50
2019-03-31T05:39:50.670Z,22.50
2019-03-31T05:40:50.660Z,22.50
2019-03-31T05:41:50.674Z,22.50
2019-03-31T05:42:50.641Z,22.50
2019-03-31T05:44:04.802Z,28.12
2019-03-31T05:44:51.641Z,28.12
2019-03-31T05:45:52.464Z,28.12
2019-03-31T05:46:50.593Z,28.12
2019-03-31T05:47:50.582Z,28.12
2019-03-31T05:48:50.604Z,28.12
2019-03-31T05:49:50.561Z,28.12
2019-03-31T05:50:50.555Z,28.12
2019-03-31T05:51:50.538Z,28.12
2019-03-31T05:52:50.526Z,28.12
2019-03-31T05:53:50.533Z,28.12
2019-03-31T05:54:50.508Z,28.12
2019-03-31T05:55:50.500Z,28.12
2019-03-31T05:56:50.481Z,28.12
2019-03-31T05:57:50.496Z,33.75
2019-03-31T05:58:50.483Z,33.75
2019-03-31T05:59:50.447Z,33.75
2019-03-31T06:00:50.440Z,33.75
2019-03-31T06:01:50.456Z,33.75
2019-03-31T06:02:50.418Z,33.75
2019-03-31T06:03:50.401Z,33.75
2019-03-31T06:04:50.391Z,33.75
2019-03-31T06:05:50.403Z,33.75
2019-03-31T06:06:50.372Z,33.75
2019-03-31T06:07:50.357Z,33.75
2019-03-31T06:08:50.351Z,33.75
2019-03-31T06:09:50.345Z,33.75
2019-03-31T06:10:50.393Z,33.75
2019-03-31T06:11:53.178Z,33.75
2019-03-31T06:12:50.328Z,33.75
2019-03-31T06:13:50.300Z,28.12
2019-03-31T06:14:50.283Z,28.12
2019-03-31T06:15:50.292Z,28.12
2019-03-31T06:16:50.258Z,28.12
2019-03-31T06:17:50.397Z,28.12
2019-03-31T06:18:50.243Z,28.12
2019-03-31T06:19:50.228Z,28.12
2019-03-31T06:20:50.378Z,28.12
2019-03-31T06:21:50.200Z,33.75
2019-03-31T06:22:50.189Z,33.75
2019-03-31T06:23:50.201Z,39.38
2019-03-31T06:24:50.172Z,39.38
2019-03-31T06:25:50.184Z,39.38
2019-03-31T06:26:50.151Z,33.75
2019-03-31T06:27:50.134Z,33.75
2019-03-31T06:28:50.188Z,33.75
2019-03-31T06:29:50.155Z,33.75
2019-03-31T06:30:50.102Z,33.75
2019-03-31T06:31:50.122Z,33.75
2019-03-31T06:32:50.079Z,33.75
2019-03-31T06:33:50.090Z,33.75
2019-03-31T06:34:50.092Z,33.75
2019-03-31T06:35:50.048Z,33.75
2019-03-31T06:36:50.032Z,33.75
2019-03-31T06:37:50.022Z,33.75
2019-03-31T06:38:50.009Z,39.38
2019-03-31T06:39:50.034Z,39.38
2019-03-31T06:40:49.991Z,39.38
2019-03-31T06:41:50.014Z,39.38
2019-03-31T06:42:49.967Z,45.00
2019-03-31T06:43:49.955Z,45.00
2019-03-31T06:44:49.945Z,45.00
2019-03-31T06:45:49.936Z,45.00
2019-03-31T06:46:49.955Z,45.00
2019-03-31T06:47:49.910Z,45.00
2019-03-31T06:48:49.901Z,45.00
2019-03-31T06:49:49.895Z,45.00
2019-03-31T06:50:49.877Z,45.00
2019-03-31T06:51:49.896Z,45.00
2019-03-31T06:52:49.872Z,50.62
2019-03-31T06:53:49.845Z,45.00
2019-03-31T06:54:49.848Z,45.00
2019-03-31T06:55:49.819Z,50.62
2019-03-31T06:56:49.809Z,50.62
2019-03-31T06:57:49.821Z,50.62
2019-03-31T06:58:49.796Z,50.62
2019-03-31T06:59:49.775Z,50.62
2019-03-31T07:00:49.766Z,50.62
2019-03-31T07:01:49.752Z,50.62
2019-03-31T07:02:49.771Z,50.62
2019-03-31T07:03:49.733Z,50.62
2019-03-31T07:05:00.496Z,56.25
2019-03-31T07:05:50.706Z,56.25
2019-03-31T07:06:49.697Z,56.25
2019-03-31T07:07:49.740Z,61.88
2019-03-31T07:08:49.678Z,61.88
2019-03-31T07:09:49.662Z,67.50
2019-03-31T07:10:49.688Z,67.50
2019-03-31T07:11:49.660Z,73.12
2019-03-31T07:12:49.629Z,73.12
2019-03-31T07:13:49.626Z,73.12
2019-03-31T07:14:49.606Z,78.75
2019-03-31T07:15:49.620Z,78.75
2019-03-31T07:16:49.613Z,78.75
2019-03-31T07:17:49.573Z,78.75
2019-03-31T07:18:49.561Z,78.75
2019-03-31T07:19:49.550Z,84.38
2019-03-31T07:20:49.564Z,84.38
2019-03-31T07:21:49.564Z,90.00
2019-03-31T07:22:49.533Z,95.62
2019-03-31T07:23:49.516Z,95.62
2019-03-31T07:24:49.495Z,95.62
2019-03-31T07:25:49.484Z,90.00
2019-03-31T07:26:49.495Z,95.62
2019-03-31T07:27:49.482Z,95.62
2019-03-31T07:28:49.451Z,101.25
2019-03-31T07:29:49.447Z,101.25
2019-03-31T07:30:49.451Z,101.25
2019-03-31T07:31:49.416Z,106.88
2019-03-31T07:32:49.431Z,112.50
2019-03-31T07:33:49.396Z,123.75
2019-03-31T07:34:49.382Z,135.00
2019-03-31T07:35:49.402Z,140.62
2019-03-31T07:36:49.365Z,146.25
2019-03-31T07:37:49.403Z,146.25
2019-03-31T07:38:49.449Z,146.25
2019-03-31T07:39:49.369Z,140.62
2019-03-31T07:40:49.718Z,140.62
2019-03-31T07:41:49.622Z,146.25
2019-03-31T07:42:51.006Z,151.88
2019-03-31T07:43:49.311Z,146.25
2019-03-31T07:44:49.271Z,140.62
2019-03-31T07:45:49.256Z,135.00
2019-03-31T07:46:49.247Z,140.62
2019-03-31T07:47:49.242Z,146.25
2019-03-31T07:48:49.246Z,151.88
2019-03-31T07:49:49.212Z,151.88
2019-03-31T07:50:49.201Z,157.50
2019-03-31T07:51:49.211Z,146.25
2019-03-31T07:52:49.178Z,123.75
2019-03-31T07:53:49.172Z,106.88
2019-03-31T07:54:49.240Z,90.00
2019-03-31T07:55:49.172Z,84.38
2019-03-31T07:56:49.134Z,84.38
2019-03-31T07:57:49.141Z,84.38
2019-03-31T07:58:49.109Z,95.62
2019-03-31T07:59:49.117Z,90.00
2019-03-31T08:00:49.117Z,90.00
2019-03-31T08:01:49.095Z,95.62
2019-03-31T08:02:49.066Z,106.88
2019-03-31T08:03:49.056Z,140.62
2019-03-31T08:04:49.042Z,151.88
2019-03-31T08:05:49.063Z,163.12
2019-03-31T08:06:49.020Z,168.75
2019-03-31T08:07:49.031Z,163.12
2019-03-31T08:08:49.000Z,157.50
2019-03-31T08:09:48.997Z,151.88
2019-03-31T08:10:48.998Z,146.25
2019-03-31T08:11:48.966Z,140.62
2019-03-31T08:12:48.974Z,146.25
2019-03-31T08:13:48.964Z,151.88
2019-03-31T08:14:48.930Z,157.50
2019-03-31T08:15:48.921Z,168.75
2019-03-31T08:16:48.915Z,174.38
2019-03-31T08:17:48.895Z,191.25
2019-03-31T08:18:48.906Z,196.88
2019-03-31T08:19:48.898Z,202.50
2019-03-31T08:20:48.862Z,208.12
2019-03-31T08:21:48.859Z,213.75
2019-03-31T08:22:48.862Z,208.12
2019-03-31T08:23:48.828Z,213.75
2019-03-31T08:24:48.833Z,236.25
2019-03-31T08:25:48.832Z,264.38
2019-03-31T08:26:48.794Z,247.50
2019-03-31T08:27:48.787Z,225.00
2019-03-31T08:28:48.825Z,236.25
2019-03-31T08:29:59.888Z,247.50
2019-03-31T08:30:49.774Z,264.38
2019-03-31T08:31:48.740Z,247.50
2019-03-31T08:32:48.763Z,253.12
2019-03-31T08:33:48.715Z,241.88
2019-03-31T08:34:48.709Z,236.25
2019-03-31T08:35:48.723Z,230.62
2019-03-31T08:36:48.687Z,225.00
2019-03-31T08:37:48.670Z,225.00
2019-03-31T08:38:48.659Z,225.00
2019-03-31T08:39:48.660Z,219.38
2019-03-31T08:40:48.677Z,225.00
2019-03-31T08:41:48.627Z,230.62
2019-03-31T08:42:48.623Z,241.88
2019-03-31T08:43:48.602Z,236.25
2019-03-31T08:44:48.595Z,213.75
2019-03-31T08:45:48.613Z,219.38
2019-03-31T08:46:48.568Z,202.50
2019-03-31T08:47:48.577Z,191.25
2019-03-31T08:48:48.569Z,180.00
2019-03-31T08:49:48.569Z,174.38
2019-03-31T08:50:48.569Z,163.12
2019-03-31T08:51:48.512Z,163.12
2019-03-31T08:52:48.508Z,163.12
2019-03-31T08:53:48.490Z,163.12
2019-03-31T08:54:48.507Z,163.12
2019-03-31T08:55:48.518Z,163.12
2019-03-31T08:56:48.468Z,163.12
2019-03-31T08:57:48.449Z,163.12
2019-03-31T08:58:48.472Z,168.75
2019-03-31T08:59:48.423Z,168.75
2019-03-31T09:00:48.410Z,163.12
2019-03-31T09:01:48.434Z,163.12
2019-03-31T09:02:48.423Z,168.75
2019-03-31T09:03:48.386Z,213.75
2019-03-31T09:04:48.373Z,196.88
2019-03-31T09:06:00.906Z,219.38
2019-03-31T09:06:49.407Z,196.88
2019-03-31T09:07:48.334Z,213.75
2019-03-31T09:08:48.320Z,225.00
2019-03-31T09:09:48.322Z,241.88
2019-03-31T09:10:48.328Z,241.88
2019-03-31T09:11:48.313Z,247.50
2019-03-31T09:12:48.757Z,241.88
2019-03-31T09:13:48.296Z,241.88
2019-03-31T09:14:48.256Z,247.50
2019-03-31T09:15:48.287Z,253.12
2019-03-31T09:16:48.234Z,253.12
2019-03-31T09:17:48.286Z,253.12
2019-03-31T09:18:48.217Z,253.12
2019-03-31T09:19:48.254Z,253.12
2019-03-31T09:20:48.211Z,258.75
2019-03-31T09:21:48.214Z,241.88
2019-03-31T09:22:48.180Z,258.75
2019-03-31T09:23:48.160Z,247.50
2019-03-31T09:24:48.162Z,258.75
2019-03-31T09:25:48.130Z,258.75
2019-03-31T09:26:48.174Z,264.38
2019-03-31T09:27:48.107Z,253.12
2019-03-31T09:28:48.151Z,264.38
2019-03-31T09:29:48.094Z,213.75
2019-03-31T09:30:48.078Z,253.12
2019-03-31T09:31:48.076Z,270.00
2019-03-31T09:32:48.059Z,264.38
2019-03-31T09:33:48.110Z,275.62
2019-03-31T09:34:48.031Z,264.38
2019-03-31T09:35:48.024Z,275.62
2019-03-31T09:36:48.003Z,275.62
2019-03-31T09:37:48.049Z,247.50
2019-03-31T09:38:48.595Z,286.88
2019-03-31T09:39:47.969Z,275.62
2019-03-31T09:40:47.990Z,292.50
2019-03-31T09:41:47.970Z,298.12
2019-03-31T09:42:47.937Z,236.25
2019-03-31T09:43:47.948Z,303.75
2019-03-31T09:44:47.915Z,236.25
2019-03-31T09:45:47.919Z,331.88
2019-03-31T09:46:47.890Z,236.25
2019-03-31T09:47:47.907Z,253.12
2019-03-31T09:48:47.871Z,326.25
2019-03-31T09:49:47.862Z,281.25
2019-03-31T09:50:47.846Z,264.38
2019-03-31T09:51:47.946Z,247.50
2019-03-31T09:52:47.889Z,219.38
2019-03-31T09:53:47.818Z,236.25
2019-03-31T09:54:47.801Z,286.88
2019-03-31T09:55:47.793Z,247.50
2019-03-31T09:56:47.778Z,331.88
2019-03-31T09:57:47.803Z,348.75
2019-03-31T09:58:47.777Z,360.00
2019-03-31T09:59:47.751Z,298.12
2019-03-31T10:00:47.734Z,343.12
2019-03-31T10:01:47.720Z,286.88
2019-03-31T10:02:47.710Z,264.38
2019-03-31T10:03:47.731Z,258.75
2019-03-31T10:04:47.686Z,258.75
2019-03-31T10:05:48.380Z,270.00
2019-03-31T10:06:47.663Z,270.00
2019-03-31T10:07:47.668Z,270.00
2019-03-31T10:08:47.668Z,253.12
2019-03-31T10:09:47.656Z,236.25
2019-03-31T10:10:47.645Z,236.25
2019-03-31T10:11:47.609Z,225.00
2019-03-31T10:12:47.619Z,225.00
2019-03-31T10:13:47.607Z,230.62
2019-03-31T10:14:47.574Z,219.38
2019-03-31T10:15:47.562Z,225.00
2019-03-31T10:16:47.560Z,225.00
2019-03-31T10:17:47.539Z,225.00
2019-03-31T10:18:47.553Z,208.12
2019-03-31T10:19:47.516Z,202.50
2019-03-31T10:20:47.507Z,208.12
2019-03-31T10:21:47.495Z,219.38
2019-03-31T10:22:47.526Z,258.75
2019-03-31T10:23:47.503Z,230.62
2019-03-31T10:24:47.459Z,230.62
2019-03-31T10:25:47.520Z,236.25
2019-03-31T10:26:47.439Z,236.25
2019-03-31T10:27:47.428Z,253.12
2019-03-31T10:28:47.449Z,315.00
2019-03-31T10:29:47.427Z,303.75
2019-03-31T10:30:47.430Z,303.75
2019-03-31T10:31:47.412Z,309.38
2019-03-31T10:32:47.370Z,286.88
2019-03-31T10:33:47.361Z,270.00
2019-03-31T10:34:47.348Z,258.75
2019-03-31T10:35:47.415Z,264.38
2019-03-31T10:36:47.349Z,270.00
2019-03-31T10:37:47.314Z,264.38
2019-03-31T10:38:47.308Z,264.38
2019-03-31T10:39:47.328Z,264.38
2019-03-31T10:40:47.283Z,253.12
2019-03-31T10:41:47.299Z,247.50
2019-03-31T10:42:47.257Z,247.50
2019-03-31T10:43:47.245Z,236.25
2019-03-31T10:44:47.268Z,241.88
2019-03-31T10:45:47.224Z,241.88
2019-03-31T10:46:47.212Z,241.88
2019-03-31T10:47:47.235Z,236.25
2019-03-31T10:48:47.189Z,241.88
2019-03-31T10:49:47.192Z,236.25
2019-03-31T10:50:47.169Z,225.00
2019-03-31T10:51:47.154Z,230.62
2019-03-31T10:52:47.252Z,236.25
2019-03-31T10:53:47.136Z,241.88
2019-03-31T10:54:47.121Z,253.12
2019-03-31T10:55:47.151Z,247.50
2019-03-31T10:56:47.263Z,241.88
2019-03-31T10:57:47.093Z,241.88
2019-03-31T10:58:47.124Z,241.88
2019-03-31T10:59:47.067Z,241.88
2019-03-31T11:00:47.052Z,236.25
2019-03-31T11:01:47.165Z,241.88
2019-03-31T11:02:47.042Z,241.88
2019-03-31T11:03:47.027Z,241.88
2019-03-31T11:04:47.008Z,236.25
2019-03-31T11:05:47.045Z,236.25
2019-03-31T11:06:58.452Z,247.50
2019-03-31T11:07:47.999Z,241.88
2019-03-31T11:08:46.965Z,236.25
2019-03-31T11:09:46.949Z,236.25
2019-03-31T11:10:46.974Z,241.88
2019-03-31T11:11:46.932Z,247.50
2019-03-31T11:12:46.917Z,241.88
2019-03-31T11:13:46.946Z,219.38
2019-03-31T11:14:46.893Z,202.50
2019-03-31T11:15:46.912Z,191.25
2019-03-31T11:16:46.872Z,185.62
2019-03-31T11:17:46.876Z,185.62
2019-03-31T11:18:46.847Z,180.00
2019-03-31T11:19:46.837Z,174.38
2019-03-31T11:20:46.848Z,174.38
2019-03-31T11:21:46.857Z,180.00
2019-03-31T11:22:46.807Z,180.00
2019-03-31T11:23:46.830Z,180.00
2019-03-31T11:24:46.787Z,180.00
2019-03-31T11:25:46.802Z,180.00
2019-03-31T11:26:46.788Z,168.75
2019-03-31T11:27:46.748Z,163.12
2019-03-31T11:28:46.742Z,163.12
2019-03-31T11:29:46.759Z,163.12
2019-03-31T11:30:46.729Z,174.38
2019-03-31T11:31:46.743Z,174.38
2019-03-31T11:32:46.701Z,168.75
2019-03-31T11:33:46.678Z,163.12
2019-03-31T11:34:46.679Z,163.12
2019-03-31T11:35:46.673Z,168.75
2019-03-31T11:36:46.644Z,168.75
2019-03-31T11:37:46.666Z,185.62
2019-03-31T11:38:46.645Z,191.25
2019-03-31T11:39:46.611Z,185.62
2019-03-31T11:40:46.600Z,180.00
2019-03-31T11:41:46.588Z,174.38
2019-03-31T11:42:46.603Z,168.75
2019-03-31T11:43:46.591Z,180.00
2019-03-31T11:44:46.558Z,185.62
2019-03-31T11:45:46.565Z,196.88
2019-03-31T11:46:46.535Z,196.88
2019-03-31T11:47:46.566Z,202.50
2019-03-31T11:48:46.517Z,196.88
2019-03-31T11:49:46.500Z,196.88
2019-03-31T11:50:46.488Z,202.50
2019-03-31T11:51:46.475Z,202.50
2019-03-31T11:52:46.502Z,213.75
2019-03-31T11:53:46.456Z,213.75
2019-03-31T11:54:46.447Z,213.75
2019-03-31T11:55:46.436Z,230.62
2019-03-31T11:56:46.420Z,196.88
2019-03-31T11:57:46.432Z,196.88
2019-03-31T11:58:46.398Z,202.50
2019-03-31T11:59:49.521Z,202.50
2019-03-31T12:00:46.404Z,213.75
2019-03-31T12:01:46.363Z,213.75
2019-03-31T12:02:46.357Z,213.75
2019-03-31T12:03:46.366Z,225.00
2019-03-31T12:04:46.340Z,230.62
2019-03-31T12:05:46.325Z,230.62
2019-03-31T12:06:46.331Z,225.00
2019-03-31T12:07:47.486Z,225.00
2019-03-31T12:08:46.285Z,236.25
2019-03-31T12:09:46.274Z,230.62
2019-03-31T12:10:46.263Z,230.62
2019-03-31T12:11:46.340Z,241.88
2019-03-31T12:12:46.241Z,241.88
2019-03-31T12:13:46.228Z,236.25
2019-03-31T12:14:59.570Z,241.88
2019-03-31T12:15:47.229Z,241.88
2019-03-31T12:16:46.198Z,236.25
2019-03-31T12:17:46.186Z,236.25
2019-03-31T12:18:46.203Z,241.88
2019-03-31T12:19:48.705Z,247.50
2019-03-31T12:20:46.151Z,253.12
2019-03-31T12:21:46.142Z,241.88
2019-03-31T12:22:46.173Z,241.88
2019-03-31T12:23:46.155Z,247.50
2019-03-31T12:24:46.104Z,247.50
2019-03-31T12:25:46.094Z,247.50
2019-03-31T12:26:46.083Z,247.50
2019-03-31T12:27:46.113Z,247.50
2019-03-31T12:28:46.058Z,247.50
2019-03-31T12:29:46.055Z,247.50
2019-03-31T12:30:46.037Z,247.50
2019-03-31T12:31:46.028Z,241.88
2019-03-31T12:32:46.037Z,236.25
2019-03-31T12:33:46.001Z,236.25
2019-03-31T12:34:46.023Z,225.00
2019-03-31T12:35:45.992Z,208.12
2019-03-31T12:36:45.970Z,202.50
2019-03-31T12:37:45.956Z,213.75
2019-03-31T12:38:46.026Z,208.12
2019-03-31T12:39:45.937Z,196.88
2019-03-31T12:40:45.932Z,185.62
2019-03-31T12:41:45.910Z,180.00
2019-03-31T12:42:45.961Z,174.38
2019-03-31T12:43:45.888Z,174.38
2019-03-31T12:44:45.878Z,191.25
2019-03-31T12:45:45.870Z,174.38
2019-03-31T12:46:45.930Z,180.00
2019-03-31T12:47:45.856Z,180.00
2019-03-31T12:48:45.856Z,191.25
2019-03-31T12:49:45.837Z,196.88
2019-03-31T12:50:45.813Z,208.12
2019-03-31T12:51:45.873Z,219.38
2019-03-31T12:52:47.464Z,225.00